createdAt,value
2018-03-22T00:00:11.602Z,0.30
2018-03-22T00:04:14.158Z,0.50
2018-03-22T00:08:17.472Z,0.40
2018-03-22T00:12:20.105Z,0.40
2018-03-22T00:16:22.626Z,0.40
2018-03-22T00:20:25.337Z,0.40
2018-03-22T00:24:27.865Z,0.50
2018-03-22T00:28:30.409Z,0.60
2018-03-22T00:32:36.985Z,0.60
2018-03-22T00:36:39.538Z,0.60
2018-03-22T00:40:42.048Z,0.80
2018-03-22T00:44:44.593Z,0.90
2018-03-22T00:48:47.114Z,0.90
2018-03-22T00:52:49.660Z,1.00
2018-03-22T00:56:52.190Z,1.00
2018-03-22T01:00:54.736Z,0.90
2018-03-22T01:04:57.262Z,1.00
2018-03-22T01:08:59.956Z,1.00
2018-03-22T01:13:05.180Z,1.20
2018-03-22T01:17:07.729Z,1.10
2018-03-22T01:21:11.019Z,1.30
2018-03-22T01:25:13.869Z,1.20
2018-03-22T01:29:17.170Z,1.40
2018-03-22T01:33:19.753Z,1.40
2018-03-22T01:37:22.313Z,1.50
2018-03-22T01:41:25.804Z,1.50
2018-03-22T01:45:28.362Z,1.50
2018-03-22T01:49:30.936Z,1.60
2018-03-22T01:53:33.468Z,1.70
2018-03-22T01:57:36.041Z,1.80
2018-03-22T02:01:38.574Z,1.90
2018-03-22T02:05:41.129Z,1.90
2018-03-22T02:09:43.653Z,2.00
2018-03-22T02:13:46.224Z,2.00
2018-03-22T02:17:48.744Z,2.00
2018-03-22T02:21:51.577Z,2.00
2018-03-22T02:25:54.092Z,2.10
2018-03-22T02:29:57.550Z,2.10
2018-03-22T02:34:01.024Z,2.00
2018-03-22T02:38:03.596Z,2.10
2018-03-22T02:42:06.155Z,2.10
2018-03-22T02:46:08.692Z,2.10
2018-03-22T02:50:11.215Z,2.10
2018-03-22T02:54:20.501Z,2.00
2018-03-22T02:58:23.029Z,2.10
2018-03-22T03:02:25.690Z,2.00
2018-03-22T03:06:28.220Z,2.00
2018-03-22T03:10:30.876Z,2.00
2018-03-22T03:14:44.160Z,2.00
2018-03-22T03:18:46.703Z,2.10
2018-03-22T03:22:49.218Z,2.10
2018-03-22T03:26:51.800Z,2.20
2018-03-22T03:30:54.337Z,2.20
2018-03-22T03:34:57.664Z,2.10
2018-03-22T03:39:00.960Z,2.30
2018-03-22T03:43:03.534Z,2.20
2018-03-22T03:47:06.048Z,2.30
2018-03-22T03:51:08.684Z,2.30
2018-03-22T03:55:11.204Z,2.30
2018-03-22T03:59:13.748Z,2.30
2018-03-22T04:03:18.242Z,2.30
2018-03-22T04:07:20.788Z,2.30
2018-03-22T04:11:23.304Z,2.30
2018-03-22T04:15:26.183Z,2.30
2018-03-22T04:19:29.468Z,2.20
2018-03-22T04:23:32.008Z,2.20
2018-03-22T04:27:34.527Z,2.20
2018-03-22T04:31:37.835Z,2.20
2018-03-22T04:35:40.353Z,2.20
2018-03-22T04:39:43.680Z,2.30
2018-03-22T04:43:46.980Z,2.40
2018-03-22T04:47:54.069Z,2.30
2018-03-22T04:51:56.584Z,2.40
2018-03-22T04:55:59.139Z,2.40
2018-03-22T05:00:01.644Z,2.30
2018-03-22T05:04:04.212Z,2.40
2018-03-22T05:08:06.745Z,2.30
2018-03-22T05:12:10.056Z,2.40
2018-03-22T05:16:13.333Z,2.40
2018-03-22T05:20:27.413Z,2.30
2018-03-22T05:24:29.955Z,2.50
2018-03-22T05:28:33.079Z,2.60
2018-03-22T05:32:36.397Z,2.50
2018-03-22T05:36:39.320Z,2.50
2018-03-22T05:40:42.608Z,2.50
2018-03-22T05:44:45.345Z,2.50
2018-03-22T05:48:48.657Z,2.60
2018-03-22T05:52:52.095Z,2.50
2018-03-22T05:56:58.456Z,2.60
2018-03-22T06:01:01.404Z,2.70
2018-03-22T06:05:04.744Z,2.70
2018-03-22T06:09:08.056Z,2.70
2018-03-22T06:13:11.364Z,2.60
2018-03-22T06:17:13.935Z,2.60
2018-03-22T06:21:16.467Z,2.70
2018-03-22T06:25:19.017Z,2.70
2018-03-22T06:29:21.549Z,2.70
2018-03-22T06:33:24.105Z,2.80
2018-03-22T06:37:34.608Z,2.80
2018-03-22T06:41:37.923Z,2.90
2018-03-22T06:45:41.293Z,2.90
2018-03-22T06:49:43.928Z,2.80
2018-03-22T06:53:46.441Z,2.80
2018-03-22T06:57:49.369Z,2.80
2018-03-22T07:01:51.896Z,2.80
2018-03-22T07:05:54.454Z,2.70
2018-03-22T07:09:56.992Z,2.70
2018-03-22T07:14:00.321Z,2.70
2018-03-22T07:18:03.606Z,2.70
2018-03-22T07:22:06.252Z,2.60
2018-03-22T07:26:09.527Z,2.90
2018-03-22T07:30:12.213Z,2.90
2018-03-22T07:34:14.736Z,3.00
2018-03-22T07:38:17.589Z,3.00
2018-03-22T07:42:20.884Z,2.90
2018-03-22T07:46:23.480Z,2.80
2018-03-22T07:50:26.001Z,2.70
2018-03-22T07:54:28.556Z,2.70
2018-03-22T07:58:31.073Z,2.70
2018-03-22T08:02:33.619Z,2.60
2018-03-22T08:06:36.145Z,2.70
2018-03-22T08:10:38.804Z,2.60
2018-03-22T08:14:51.660Z,2.50
2018-03-22T08:18:54.220Z,2.30
2018-03-22T08:22:57.504Z,2.30
2018-03-22T08:27:00.057Z,2.20
2018-03-22T08:31:07.922Z,2.30
2018-03-22T08:35:10.482Z,2.30
2018-03-22T08:39:13.019Z,2.20
2018-03-22T08:43:15.567Z,2.30
2018-03-22T08:47:18.091Z,2.40
2018-03-22T08:51:23.361Z,2.60
2018-03-22T08:55:26.675Z,2.50
2018-03-22T08:59:29.241Z,2.50
2018-03-22T09:03:33.694Z,2.60
2018-03-22T09:07:36.341Z,2.80
2018-03-22T09:11:38.868Z,2.80
2018-03-22T09:15:41.429Z,2.80
2018-03-22T09:19:43.943Z,2.90
2018-03-22T09:23:46.484Z,2.70
2018-03-22T09:27:49.058Z,2.60
2018-03-22T09:31:51.691Z,2.70
2018-03-22T09:35:54.976Z,3.00
2018-03-22T09:39:57.549Z,2.90
2018-03-22T09:44:00.068Z,3.10
2018-03-22T09:48:04.668Z,3.10
2018-03-22T09:52:07.965Z,3.20
2018-03-22T09:56:21.288Z,3.10
2018-03-22T10:00:23.814Z,3.10
2018-03-22T10:04:26.379Z,3.30
2018-03-22T10:08:30.914Z,3.40
2018-03-22T10:12:33.441Z,3.40
2018-03-22T10:16:35.959Z,3.30
2018-03-22T10:20:38.565Z,3.40
2018-03-22T10:24:41.092Z,3.40
2018-03-22T10:28:43.681Z,3.40
2018-03-22T10:32:46.208Z,3.40
2018-03-22T10:36:48.871Z,3.30
2018-03-22T10:40:52.170Z,3.20
2018-03-22T10:44:54.816Z,3.20
2018-03-22T10:48:57.330Z,3.30
2018-03-22T10:52:59.889Z,3.40
2018-03-22T10:57:02.403Z,3.40
2018-03-22T11:01:11.391Z,3.50
2018-03-22T11:05:13.905Z,3.50
2018-03-22T11:09:17.364Z,3.50
2018-03-22T11:13:19.900Z,3.50
2018-03-22T11:17:23.231Z,3.70
2018-03-22T11:21:26.540Z,3.90
2018-03-22T11:25:29.170Z,3.90
2018-03-22T11:29:31.735Z,4.10
2018-03-22T11:33:36.484Z,4.20
2018-03-22T11:37:39.005Z,4.20
2018-03-22T11:41:41.707Z,4.40
2018-03-22T11:45:44.224Z,4.20
2018-03-22T11:49:46.901Z,4.10
2018-03-22T11:53:49.474Z,4.20
2018-03-22T11:57:52.763Z,4.20
2018-03-22T12:01:55.309Z,4.10
2018-03-22T12:05:57.968Z,4.30
2018-03-22T12:10:00.529Z,4.40
2018-03-22T12:14:12.499Z,4.30
2018-03-22T12:18:15.032Z,4.40
2018-03-22T12:22:18.376Z,4.60
2018-03-22T12:26:20.892Z,4.50
2018-03-22T12:30:24.229Z,4.70
2018-03-22T12:34:26.756Z,4.60
2018-03-22T12:38:29.400Z,4.70
2018-03-22T12:42:32.721Z,4.70
2018-03-22T12:46:36.047Z,4.70
2018-03-22T12:50:38.565Z,4.60
2018-03-22T12:54:41.212Z,4.80
2018-03-22T12:58:43.732Z,4.80
2018-03-22T13:02:46.285Z,4.90
2018-03-22T13:06:48.803Z,4.90
2018-03-22T13:10:52.311Z,4.90
2018-03-22T13:14:55.589Z,4.70
2018-03-22T13:18:58.224Z,4.60
2018-03-22T13:23:01.509Z,4.60
2018-03-22T13:27:04.053Z,4.50
2018-03-22T13:31:07.549Z,4.60
2018-03-22T13:35:10.100Z,4.50
2018-03-22T13:39:19.224Z,4.60
2018-03-22T13:43:22.133Z,4.50
2018-03-22T13:47:24.657Z,4.50
2018-03-22T13:51:27.237Z,4.70
2018-03-22T13:55:29.759Z,4.70
2018-03-22T13:59:32.315Z,4.70
2018-03-22T14:03:39.244Z,4.60
2018-03-22T14:07:41.835Z,4.70
2018-03-22T14:11:54.096Z,4.70
2018-03-22T14:15:56.728Z,4.70
2018-03-22T14:20:00.232Z,4.80
2018-03-22T14:24:03.844Z,4.80
2018-03-22T14:28:06.381Z,4.90
2018-03-22T14:32:14.756Z,5.00
2018-03-22T14:36:18.051Z,4.90
2018-03-22T14:40:28.231Z,4.90
2018-03-22T14:44:33.992Z,4.70
2018-03-22T14:48:37.321Z,4.80
2018-03-22T14:52:45.241Z,4.80
2018-03-22T14:56:47.783Z,4.80
2018-03-22T15:00:50.305Z,4.90
2018-03-22T15:04:53.944Z,4.60
2018-03-22T15:08:57.234Z,4.50
2018-03-22T15:13:01.690Z,4.40
2018-03-22T15:17:11.866Z,4.40
2018-03-22T15:21:15.301Z,4.30
2018-03-22T15:25:18.953Z,4.30
2018-03-22T15:29:21.532Z,4.30
2018-03-22T15:33:29.445Z,4.30
2018-03-22T15:37:32.092Z,4.40
2018-03-22T15:41:34.624Z,4.50
2018-03-22T15:45:37.954Z,4.60
2018-03-22T15:49:40.472Z,4.60
2018-03-22T15:53:44.074Z,4.70
2018-03-22T15:57:48.237Z,4.50
2018-03-22T16:01:52.013Z,4.50
2018-03-22T16:05:54.560Z,4.50
2018-03-22T16:09:57.897Z,4.50
2018-03-22T16:14:01.184Z,4.40
2018-03-22T16:18:04.808Z,4.40
2018-03-22T16:22:07.347Z,4.50
2018-03-22T16:26:11.784Z,4.60
2018-03-22T16:30:15.086Z,4.60
2018-03-22T16:34:19.679Z,4.60
2018-03-22T16:38:24.204Z,4.50
2018-03-22T16:42:27.798Z,4.40
2018-03-22T16:46:32.220Z,4.50
2018-03-22T16:50:34.881Z,4.50
2018-03-22T16:54:41.602Z,4.60
2018-03-22T16:58:45.120Z,4.50
2018-03-22T17:02:51.648Z,4.40
2018-03-22T17:06:56.464Z,4.30
2018-03-22T17:10:58.990Z,4.30
2018-03-22T17:15:01.564Z,4.30
2018-03-22T17:19:04.128Z,4.20
2018-03-22T17:23:12.759Z,4.10
2018-03-22T17:27:16.068Z,4.00
2018-03-22T17:31:18.623Z,4.00
2018-03-22T17:35:21.148Z,4.00
2018-03-22T17:39:23.720Z,4.00
2018-03-22T17:43:26.254Z,4.10
2018-03-22T17:47:28.918Z,4.20
2018-03-22T17:51:31.436Z,4.20
2018-03-22T17:55:35.783Z,4.40
2018-03-22T17:59:40.072Z,4.40
2018-03-22T18:03:46.201Z,4.40
2018-03-22T18:07:48.784Z,4.40
2018-03-22T18:11:51.364Z,4.40
2018-03-22T18:15:54.824Z,4.50
2018-03-22T18:19:58.788Z,4.40
2018-03-22T18:24:02.291Z,4.30
2018-03-22T18:28:05.840Z,4.30
2018-03-22T18:32:08.364Z,4.40
2018-03-22T18:36:11.063Z,4.50
2018-03-22T18:40:16.962Z,4.40
2018-03-22T18:44:19.611Z,4.50
2018-03-22T18:48:29.673Z,4.40
2018-03-22T18:52:32.298Z,4.50
2018-03-22T18:56:34.825Z,4.50
2018-03-22T19:00:37.372Z,4.50
2018-03-22T19:04:39.908Z,4.50
2018-03-22T19:08:54.921Z,4.50
2018-03-22T19:12:57.491Z,4.40
2018-03-22T19:17:00.981Z,4.40
2018-03-22T19:21:03.540Z,4.40
2018-03-22T19:25:08.055Z,4.30
2018-03-22T19:29:12.318Z,4.30
2018-03-22T19:33:15.746Z,4.40
2018-03-22T19:37:18.314Z,4.30
2018-03-22T19:41:21.865Z,4.30
2018-03-22T19:45:26.153Z,4.20
2018-03-22T19:49:28.744Z,4.20
2018-03-22T19:53:31.272Z,4.20
2018-03-22T19:57:33.952Z,4.10
2018-03-22T20:01:36.490Z,4.10
2018-03-22T20:05:40.191Z,4.10
2018-03-22T20:09:42.852Z,4.20
2018-03-22T20:13:45.437Z,4.20
2018-03-22T20:17:50.705Z,4.30
2018-03-22T20:21:53.376Z,4.30
2018-03-22T20:25:55.954Z,4.30
2018-03-22T20:29:58.625Z,4.40
2018-03-22T20:34:01.300Z,4.40
2018-03-22T20:38:03.923Z,4.40
2018-03-22T20:42:06.447Z,4.50
2018-03-22T20:46:09.013Z,4.50
2018-03-22T20:50:11.928Z,4.50
2018-03-22T20:54:15.256Z,4.60
2018-03-22T20:58:17.890Z,4.60
2018-03-22T21:02:21.198Z,4.70
2018-03-22T21:06:25.480Z,4.60
2018-03-22T21:10:28.154Z,4.60
2018-03-22T21:14:30.681Z,4.60
2018-03-22T21:18:33.620Z,4.60
2018-03-22T21:22:36.144Z,4.60
2018-03-22T21:26:38.776Z,4.60
2018-03-22T21:30:43.284Z,4.60
2018-03-22T21:34:45.856Z,4.60
2018-03-22T21:38:48.388Z,4.60
2018-03-22T21:42:50.952Z,4.70
2018-03-22T21:46:54.272Z,4.80
2018-03-22T21:51:00.545Z,4.80
2018-03-22T21:55:04.064Z,4.80
2018-03-22T21:59:06.686Z,4.80
2018-03-22T22:03:09.196Z,4.70
2018-03-22T22:07:12.512Z,4.70
2018-03-22T22:11:15.043Z,4.60
2018-03-22T22:15:18.499Z,4.60
2018-03-22T22:19:26.760Z,4.50
2018-03-22T22:23:29.296Z,4.70
2018-03-22T22:27:31.831Z,4.70
2018-03-22T22:31:34.385Z,4.80
2018-03-22T22:35:36.896Z,4.80
2018-03-22T22:39:39.465Z,4.80
2018-03-22T22:43:42.914Z,4.80
2018-03-22T22:47:45.474Z,4.70
2018-03-22T22:51:48.766Z,4.80
2018-03-22T22:55:51.478Z,4.70
2018-03-22T22:59:53.997Z,4.70
2018-03-22T23:03:57.405Z,4.80
2018-03-22T23:07:59.916Z,4.80
2018-03-22T23:12:02.465Z,4.70
2018-03-22T23:16:04.986Z,4.70
2018-03-22T23:20:07.546Z,4.70
2018-03-22T23:24:10.064Z,4.70
2018-03-22T23:28:12.711Z,4.70
2018-03-22T23:32:15.232Z,4.80
2018-03-22T23:36:17.897Z,4.80
2018-03-22T23:40:20.421Z,4.80
2018-03-22T23:44:23.736Z,4.80
2018-03-22T23:48:26.259Z,4.80
2018-03-22T23:52:28.833Z,4.90
2018-03-22T23:56:31.411Z,4.90
